Time;durP1;ratioP1;P1;durP2;ratioP2;P2;SDS_P1;SDS_P2;PMS_P1;PMS_P2;Temp;Humidity;BMP_temperature;BMP_pressure;BME280_temperature;BME280_humidity;BME280_pressure;Samples;Min_cycle;Max_cycle;Signal;HPM_P1;HPM_P2
2022/01/25 00:08:28;;;;;;;47.00;17.30;;;;;;;2.15;89.24;101873.34;106215;1273;22532;-62
2022/01/25 00:25:18;;;;;;;42.30;16.20;;;;;;;2.28;89.81;101870.30;106228;1273;23268;-63
2022/01/25 00:27:53;;;;;;;41.00;16.30;;;;;;;2.29;89.78;101866.21;106293;1273;24335;-63
2022/01/25 00:30:42;;;;;;;42.30;16.90;;;;;;;2.28;89.81;101859.73;106303;1273;25258;-62
2022/01/25 00:33:15;;;;;;;41.20;16.30;;;;;;;2.29;89.85;101854.56;106382;1273;25258;-62
2022/01/25 00:35:46;;;;;;;39.80;15.40;;;;;;;2.29;89.97;101855.51;106030;1273;353893;-62
2022/01/25 00:38:18;;;;;;;36.40;13.90;;;;;;;2.30;90.06;101853.45;106395;1273;24692;-62
2022/01/25 00:40:49;;;;;;;42.90;17.10;;;;;;;2.30;90.20;101850.31;106154;1273;22561;-62
2022/01/25 00:43:22;;;;;;;37.90;14.90;;;;;;;2.31;90.31;101849.60;106611;1270;25325;-60
2022/01/25 00:45:56;;;;;;;34.40;14.90;;;;;;;2.32;90.29;101846.08;106977;1267;22561;-62
2022/01/25 00:48:41;;;;;;;39.50;15.30;;;;;;;2.32;90.37;101844.02;106646;1268;23874;-63
2022/01/25 00:51:24;;;;;;;36.50;15.50;;;;;;;2.33;90.37;101842.85;106765;1267;22549;-62
2022/01/25 00:53:59;;;;;;;36.50;14.40;;;;;;;2.33;90.49;101839.70;106702;1268;22963;-61
2022/01/25 00:56:31;;;;;;;36.70;15.00;;;;;;;2.34;90.64;101842.77;106847;1268;22563;-62
2022/01/25 00:59:05;;;;;;;37.20;14.70;;;;;;;2.37;90.64;101840.73;106906;1267;22533;-63
2022/01/25 01:01:38;;;;;;;39.10;15.90;;;;;;;2.38;90.70;101846.58;106807;1267;24261;-62
2022/01/25 01:04:10;;;;;;;33.90;14.40;;;;;;;2.39;90.65;101841.86;106826;1267;22543;-62
2022/01/25 01:06:44;;;;;;;39.40;15.20;;;;;;;2.41;90.69;101837.23;106806;1268;22525;-62
2022/01/25 01:09:16;;;;;;;39.50;15.80;;;;;;;2.42;90.69;101836.13;106780;1267;22564;-62
2022/01/25 01:11:54;;;;;;;37.80;14.60;;;;;;;2.44;90.78;101840.47;106798;1267;25416;-62
2022/01/25 01:14:48;;;;;;;36.90;15.60;;;;;;;2.46;90.81;101838.28;106749;1268;22521;-62
2022/01/25 01:37:52;;;;;;;46.90;18.20;;;;;;;2.56;91.11;101817.77;105870;1280;22585;-63
2022/01/25 01:43:31;;;;;;;41.60;17.20;;;;;;;2.60;91.10;101808.98;102929;1310;545191;-63
2022/01/25 01:46:21;;;;;;;44.00;18.20;;;;;;;2.60;91.08;101816.92;105904;1281;22580;-63
2022/01/25 01:48:55;;;;;;;41.30;17.70;;;;;;;2.62;91.09;101817.41;105861;1281;22570;-63
2022/01/25 01:51:31;;;;;;;40.90;17.60;;;;;;;2.62;91.12;101809.23;106107;1277;22570;-63
2022/01/25 01:54:06;;;;;;;43.60;18.60;;;;;;;2.63;91.21;101806.93;106170;1277;22888;-63
2022/01/25 01:56:38;;;;;;;42.00;16.60;;;;;;;2.63;91.18;101801.10;105575;1274;681860;-63
2022/01/25 01:59:14;;;;;;;38.90;16.40;;;;;;;2.64;91.12;101800.95;106241;1274;25264;-62
2022/01/25 02:01:47;;;;;;;41.20;17.00;;;;;;;2.63;91.16;101799.06;106260;1274;22547;-64
2022/01/25 02:04:20;;;;;;;44.50;18.90;;;;;;;2.62;91.17;101796.85;106365;1275;23006;-63
2022/01/25 02:06:51;;;;;;;41.80;18.60;;;;;;;2.63;91.18;101797.41;106286;1275;22556;-61
2022/01/25 02:09:22;;;;;;;44.40;18.10;;;;;;;2.63;91.22;101796.16;106275;1274;22658;-62
2022/01/25 02:11:54;;;;;;;47.10;18.20;;;;;;;2.63;91.19;101793.23;106215;1274;25395;-62
2022/01/25 02:14:25;;;;;;;43.80;17.70;;;;;;;2.63;91.23;101785.11;106289;1274;22547;-63
2022/01/25 02:17:08;;;;;;;46.50;18.80;;;;;;;2.63;91.22;101780.39;106378;1274;25387;-63
2022/01/25 02:22:32;;;;;;;48.30;19.30;;;;;;;2.61;91.30;101769.98;106210;1274;22995;-63
2022/01/25 02:25:04;;;;;;;39.80;16.30;;;;;;;2.62;91.29;101770.29;106280;1274;25544;-62
2022/01/25 02:27:36;;;;;;;42.30;18.10;;;;;;;2.61;91.34;101769.59;106308;1274;22566;-63
2022/01/25 02:30:09;;;;;;;42.00;18.50;;;;;;;2.61;91.33;101771.64;106333;1274;22543;-64
2022/01/25 02:32:41;;;;;;;47.50;20.50;;;;;;;2.61;91.38;101767.62;106278;1274;24309;-63
2022/01/25 02:35:13;;;;;;;44.50;18.60;;;;;;;2.62;91.39;101769.44;106354;1274;24049;-62
2022/01/25 02:37:45;;;;;;;39.30;16.00;;;;;;;2.64;91.40;101764.72;106310;1274;25515;-62
2022/01/25 02:40:16;;;;;;;36.50;15.90;;;;;;;2.64;91.34;101763.05;106344;1274;23934;-62
2022/01/25 02:42:50;;;;;;;39.40;16.60;;;;;;;2.63;91.27;101762.52;106232;1274;22710;-63
2022/01/25 02:45:22;;;;;;;37.90;15.70;;;;;;;2.62;91.29;101758.25;106408;1274;22560;-63
2022/01/25 02:50:42;;;;;;;35.90;14.50;;;;;;;2.62;91.34;101754.78;106679;1274;23930;-61
2022/01/25 02:53:13;;;;;;;35.30;15.10;;;;;;;2.63;91.37;101750.70;106304;1272;25548;-61
2022/01/25 02:55:45;;;;;;;40.10;14.80;;;;;;;2.63;91.32;101750.30;106303;1274;24237;-60
2022/01/25 02:58:16;;;;;;;36.30;12.90;;;;;;;2.62;91.25;101754.16;106468;1271;22547;-62
2022/01/25 03:00:47;;;;;;;33.60;14.40;;;;;;;2.62;91.27;101753.21;106531;1271;22538;-61
2022/01/25 03:03:18;;;;;;;34.00;14.70;;;;;;;2.64;91.35;101757.08;106580;1271;25462;-62
2022/01/25 03:05:50;;;;;;;38.20;15.40;;;;;;;2.66;91.37;101747.94;106736;1270;23116;-62
2022/01/25 03:08:21;;;;;;;38.90;15.20;;;;;;;2.68;91.38;101747.17;106573;1271;22553;-62
2022/01/25 03:10:52;;;;;;;37.70;15.20;;;;;;;2.73;91.46;101747.02;106437;1271;23203;-62
2022/01/25 03:13:29;;;;;;;34.80;14.20;;;;;;;2.75;91.31;101743.25;106457;1271;22546;-63
2022/01/25 03:16:04;;;;;;;40.50;16.10;;;;;;;2.76;91.32;101740.17;106444;1271;22642;-63
2022/01/25 03:18:43;;;;;;;36.00;15.10;;;;;;;2.77;91.23;101740.27;106489;1271;23816;-62
2022/01/25 03:21:32;;;;;;;32.80;13.50;;;;;;;2.76;91.30;101743.23;106489;1271;25092;-62
2022/01/25 03:24:06;;;;;;;36.20;15.60;;;;;;;2.75;91.34;101738.67;106494;1271;22537;-62
2022/01/25 03:26:37;;;;;;;39.60;15.90;;;;;;;2.74;91.33;101740.23;106534;1271;23116;-62
2022/01/25 03:29:08;;;;;;;39.90;16.30;;;;;;;2.73;91.41;101735.27;106676;1271;25870;-62
2022/01/25 03:31:40;;;;;;;37.90;15.10;;;;;;;2.72;91.48;101734.09;106505;1271;22555;-61
2022/01/25 03:34:12;;;;;;;40.80;16.70;;;;;;;2.70;91.53;101733.38;106602;1271;25477;-62
2022/01/25 03:36:43;;;;;;;40.40;15.20;;;;;;;2.68;91.47;101736.38;106499;1271;22581;-62
2022/01/25 03:39:14;;;;;;;37.90;15.10;;;;;;;2.67;91.57;101736.52;106605;1271;23725;-66
2022/01/25 03:41:46;;;;;;;38.80;16.70;;;;;;;2.66;91.65;101735.11;106525;1271;22525;-62
2022/01/25 03:44:18;;;;;;;43.20;16.70;;;;;;;2.67;91.68;101731.17;106612;1271;22560;-62
2022/01/25 03:47:03;;;;;;;39.70;15.90;;;;;;;2.67;91.70;101732.19;106619;1271;22560;-63
2022/01/25 03:49:51;;;;;;;40.00;17.20;;;;;;;2.67;91.75;101726.35;106565;1271;25376;-63
2022/01/25 03:52:28;;;;;;;40.60;17.80;;;;;;;2.68;91.70;101721.08;106614;1271;22550;-61
2022/01/25 03:54:59;;;;;;;39.70;16.50;;;;;;;2.68;91.70;101720.92;106593;1270;22537;-63
2022/01/25 03:57:30;;;;;;;43.30;16.30;;;;;;;2.67;91.72;101721.95;106578;1271;26498;-63
2022/01/25 04:00:01;;;;;;;40.50;16.40;;;;;;;2.67;91.67;101724.31;106613;1270;22564;-62
2022/01/25 04:02:33;;;;;;;38.10;16.50;;;;;;;2.68;91.80;101726.44;106524;1271;25389;-62
2022/01/25 04:05:08;;;;;;;38.80;16.10;;;;;;;2.70;91.75;101724.55;106763;1271;23959;-63
2022/01/25 04:07:50;;;;;;;41.30;16.20;;;;;;;2.70;91.79;101716.67;106731;1271;24249;-63
2022/01/25 04:10:22;;;;;;;38.70;15.60;;;;;;;2.72;91.80;101724.79;106450;1271;25270;-62
2022/01/25 04:12:53;;;;;;;35.90;14.80;;;;;;;2.75;91.86;101727.88;106802;1271;25411;-62
2022/01/25 04:15:24;;;;;;;40.10;15.10;;;;;;;2.76;91.80;101723.24;106618;1271;25376;-63
2022/01/25 04:18:02;;;;;;;40.00;16.00;;;;;;;2.78;91.74;101723.39;106570;1271;22730;-62
2022/01/25 04:20:35;;;;;;;40.60;15.90;;;;;;;2.78;91.78;101723.33;106558;1271;22567;-62
2022/01/25 04:25:56;;;;;;;36.10;14.80;;;;;;;2.76;91.76;101719.70;106544;1271;22550;-62
2022/01/25 04:28:27;;;;;;;32.70;14.20;;;;;;;2.75;91.83;101719.36;106628;1271;22567;-62
2022/01/25 04:30:59;;;;;;;36.00;14.70;;;;;;;2.75;91.88;101717.63;106463;1271;22561;-63
2022/01/25 04:33:40;;;;;;;34.70;15.50;;;;;;;2.75;91.91;101720.86;106550;1271;22551;-63
2022/01/25 04:36:38;;;;;;;35.40;14.70;;;;;;;2.76;91.98;101718.59;106470;1271;22550;-63
2022/01/25 04:50:48;;;;;;;38.90;15.80;;;;;;;2.77;92.05;101707.71;106496;1271;22578;-62
2022/01/25 04:53:28;;;;;;;38.60;15.20;;;;;;;2.79;92.09;101708.51;106690;1271;26568;-62
2022/01/25 04:56:06;;;;;;;36.50;14.30;;;;;;;2.79;92.08;101712.53;106505;1271;25752;-62
2022/01/25 04:58:43;;;;;;;32.50;12.70;;;;;;;2.79;92.14;101711.42;106431;1271;25320;-65
2022/01/25 05:01:16;;;;;;;33.10;15.10;;;;;;;2.79;92.16;101709.23;106488;1271;22553;-61
2022/01/25 05:03:58;;;;;;;37.20;14.00;;;;;;;2.80;92.18;101706.07;106591;1271;25930;-62
2022/01/25 05:06:31;;;;;;;35.10;14.30;;;;;;;2.82;92.18;101709.63;106730;1268;24211;-61
2022/01/25 05:09:09;;;;;;;33.40;13.90;;;;;;;2.82;92.12;101700.95;106766;1268;22612;-62
2022/01/25 05:11:45;;;;;;;37.00;14.40;;;;;;;2.81;92.11;101698.59;106802;1268;24204;-62
2022/01/25 05:14:24;;;;;;;33.80;13.20;;;;;;;2.81;92.12;101705.27;106719;1268;25375;-62
2022/01/25 05:16:58;;;;;;;35.60;13.50;;;;;;;2.79;92.14;101707.96;106704;1268;22646;-62
2022/01/25 05:22:26;;;;;;;35.60;14.10;;;;;;;2.79;92.19;101712.85;106677;1268;25261;-61
2022/01/25 05:24:57;;;;;;;34.60;14.00;;;;;;;2.79;92.26;101716.39;106937;1268;22486;-62
2022/01/25 05:27:30;;;;;;;30.00;12.00;;;;;;;2.79;92.30;101715.29;106849;1268;22572;-63
2022/01/25 05:30:01;;;;;;;35.50;13.80;;;;;;;2.79;92.35;101712.92;106728;1268;25383;-62
2022/01/25 05:32:34;;;;;;;29.20;11.40;;;;;;;2.80;92.42;101712.85;106816;1268;22556;-62
2022/01/25 05:35:06;;;;;;;32.20;13.10;;;;;;;2.78;92.41;101706.86;106954;1268;24284;-60
2022/01/25 05:37:41;;;;;;;28.60;10.10;;;;;;;2.78;92.40;101703.23;106887;1268;25267;-62
2022/01/25 05:40:17;;;;;;;27.90;9.50;;;;;;;2.77;92.51;101702.84;106621;1268;25048;-64
2022/01/25 05:43:53;;;;;;;24.10;8.60;;;;;;;2.76;92.52;101705.90;106575;1268;25425;-60
2022/01/25 05:45:57;;;;;;;21.50;7.60;;;;;;;2.75;92.51;101698.56;106588;1268;22566;-61
2022/01/25 05:48:32;;;;;;;27.80;8.90;;;;;;;2.75;92.55;101697.63;106453;1268;27063;-66
2022/01/25 05:51:03;;;;;;;24.10;7.70;;;;;;;2.75;92.52;101695.42;106524;1268;22537;-62
2022/01/25 05:53:34;;;;;;;23.10;6.60;;;;;;;2.75;92.57;101690.61;106585;1268;22537;-63
2022/01/25 05:56:07;;;;;;;23.10;7.60;;;;;;;2.74;92.58;101683.52;106525;1268;22566;-62
2022/01/25 05:58:38;;;;;;;23.90;6.50;;;;;;;2.73;92.56;101681.93;106612;1268;22650;-62
2022/01/25 06:01:10;;;;;;;21.70;6.90;;;;;;;2.72;92.57;101681.23;106846;1268;24150;-62
2022/01/25 06:03:42;;;;;;;23.60;7.90;;;;;;;2.72;92.58;101689.10;106420;1268;22549;-63
2022/01/25 06:06:14;;;;;;;22.40;7.20;;;;;;;2.73;92.68;101693.20;106656;1268;22546;-59
2022/01/25 06:08:46;;;;;;;23.20;7.80;;;;;;;2.75;92.70;101684.77;106728;1268;23074;-67
2022/01/25 06:11:19;;;;;;;22.50;8.30;;;;;;;2.75;92.75;101678.00;106521;1268;22613;-62
2022/01/25 06:13:51;;;;;;;21.90;6.30;;;;;;;2.74;92.73;101680.38;106477;1268;22888;-60
2022/01/25 06:16:23;;;;;;;23.70;8.00;;;;;;;2.75;92.68;101681.64;106392;1268;22774;-60
2022/01/25 06:18:54;;;;;;;22.80;8.10;;;;;;;2.77;92.75;101681.48;106568;1268;25430;-63
2022/01/25 06:21:26;;;;;;;23.70;8.10;;;;;;;2.76;92.73;101664.85;106858;1267;22714;-63
2022/01/25 06:23:57;;;;;;;24.80;8.40;;;;;;;2.76;92.76;101662.55;106591;1268;24699;-68
2022/01/25 06:26:28;;;;;;;22.10;7.60;;;;;;;2.75;92.77;101667.20;106512;1268;22557;-62
2022/01/25 06:29:00;;;;;;;23.80;7.40;;;;;;;2.75;92.78;101668.39;106409;1268;23028;-61
2022/01/25 06:31:32;;;;;;;22.30;7.30;;;;;;;2.76;92.77;101667.36;106080;1268;22767;-57
2022/01/25 06:34:03;;;;;;;24.20;8.70;;;;;;;2.77;92.80;101673.36;106122;1268;22566;-60
2022/01/25 06:36:34;;;;;;;25.00;6.70;;;;;;;2.78;92.73;101672.73;105962;1268;22555;-57
2022/01/25 06:39:05;;;;;;;19.80;7.20;;;;;;;2.78;92.86;101671.86;106076;1268;26709;-56
2022/01/25 06:41:37;;;;;;;22.90;7.20;;;;;;;2.79;92.84;101672.66;106609;1268;22557;-60
2022/01/25 06:44:09;;;;;;;20.60;7.10;;;;;;;2.78;92.88;101660.75;106560;1268;24248;-58
2022/01/25 06:46:40;;;;;;;24.70;6.10;;;;;;;2.79;92.91;101661.23;107194;1268;22560;-61
2022/01/25 06:49:11;;;;;;;22.50;7.70;;;;;;;2.79;92.85;101662.66;106565;1268;25853;-57
2022/01/25 06:51:42;;;;;;;27.20;9.30;;;;;;;2.80;92.96;101664.54;106677;1268;22541;-58
2022/01/25 06:54:13;;;;;;;21.30;7.50;;;;;;;2.80;92.99;101664.94;106627;1268;22574;-59
2022/01/25 06:56:44;;;;;;;22.60;7.00;;;;;;;2.80;92.97;101664.46;106638;1268;23185;-60
2022/01/25 06:59:15;;;;;;;24.50;7.70;;;;;;;2.80;93.04;101662.11;106656;1268;22470;-62
2022/01/25 07:01:47;;;;;;;20.70;7.70;;;;;;;2.81;93.05;101662.19;106922;1268;22644;-60
2022/01/25 07:04:18;;;;;;;23.90;7.60;;;;;;;2.82;93.05;101667.07;106589;1268;24271;-59
2022/01/25 07:06:49;;;;;;;24.40;7.80;;;;;;;2.83;93.04;101667.95;106713;1268;25403;-58
2022/01/25 07:09:20;;;;;;;22.30;7.80;;;;;;;2.84;93.11;101665.73;106640;1268;22861;-59
2022/01/25 07:11:52;;;;;;;20.50;7.60;;;;;;;2.84;93.19;101664.08;106825;1268;22692;-62
2022/01/25 07:14:24;;;;;;;20.30;7.00;;;;;;;2.85;93.23;101660.84;106765;1268;22794;-61
2022/01/25 07:16:58;;;;;;;22.70;8.00;;;;;;;2.85;93.23;101662.73;106698;1268;22560;-59
2022/01/25 07:19:29;;;;;;;23.10;7.70;;;;;;;2.87;93.24;101656.98;106815;1268;22629;-59
2022/01/25 07:22:00;;;;;;;22.70;7.80;;;;;;;2.88;93.29;101651.85;106647;1268;22589;-62
2022/01/25 07:24:32;;;;;;;20.40;7.10;;;;;;;2.89;93.35;101649.81;106689;1268;22557;-61
2022/01/25 07:27:04;;;;;;;23.80;8.30;;;;;;;2.89;93.37;101646.19;106619;1268;22541;-60
2022/01/25 07:29:35;;;;;;;24.90;9.10;;;;;;;2.90;93.36;101641.62;106678;1268;22473;-61
2022/01/25 07:32:08;;;;;;;24.30;7.90;;;;;;;2.91;93.37;101640.98;106561;1268;24268;-59
2022/01/25 07:34:39;;;;;;;21.80;8.10;;;;;;;2.93;93.31;101643.59;106682;1268;22486;-59
2022/01/25 07:37:14;;;;;;;21.90;7.30;;;;;;;2.94;93.43;101649.81;106724;1268;23028;-62
2022/01/25 07:39:51;;;;;;;25.70;9.70;;;;;;;2.93;93.41;101654.15;106645;1268;25842;-57
2022/01/25 07:42:28;;;;;;;28.10;10.70;;;;;;;2.92;93.19;101650.21;106620;1268;25344;-58
2022/01/25 07:45:04;;;;;;;26.40;9.80;;;;;;;2.91;93.01;101654.63;106905;1268;22537;-60
2022/01/25 07:47:35;;;;;;;23.70;8.80;;;;;;;2.91;92.89;101651.70;107044;1268;22556;-59
2022/01/25 07:50:11;;;;;;;28.10;11.20;;;;;;;2.90;92.73;101656.59;106711;1268;22544;-60
2022/01/25 07:52:45;;;;;;;24.10;8.70;;;;;;;2.88;92.53;101651.55;106610;1268;25386;-60
2022/01/25 07:55:18;;;;;;;19.20;6.90;;;;;;;2.85;92.37;101645.73;106406;1268;22531;-60
2022/01/25 07:57:53;;;;;;;24.00;8.30;;;;;;;2.82;92.29;101646.81;106916;1268;22600;-59
2022/01/25 08:00:25;;;;;;;18.10;5.30;;;;;;;2.82;92.31;101652.80;106708;1268;24394;-58
2022/01/25 08:02:58;;;;;;;20.90;7.50;;;;;;;2.82;92.38;101659.18;106775;1268;24281;-58
2022/01/25 08:05:31;;;;;;;22.50;6.30;;;;;;;2.81;92.27;101657.52;107213;1268;22657;-60
2022/01/25 08:08:05;;;;;;;16.40;4.80;;;;;;;2.79;92.09;101658.86;107795;1268;25496;-59
2022/01/25 08:10:36;;;;;;;18.40;4.10;;;;;;;2.77;92.08;101658.08;106858;1268;22615;-60
2022/01/25 08:13:08;;;;;;;17.70;4.90;;;;;;;2.75;92.06;101662.88;106870;1268;26238;-61
2022/01/25 08:15:39;;;;;;;20.80;5.90;;;;;;;2.73;92.10;101667.91;106542;1268;23075;-59
2022/01/25 08:18:11;;;;;;;18.80;5.80;;;;;;;2.70;92.01;101666.48;106690;1268;24931;-58
2022/01/25 08:20:42;;;;;;;15.60;4.90;;;;;;;2.68;92.04;101664.52;106775;1268;22700;-61
2022/01/25 08:23:14;;;;;;;17.10;5.00;;;;;;;2.67;91.97;101676.73;106647;1268;25045;-62
2022/01/25 08:25:45;;;;;;;21.60;6.20;;;;;;;2.64;91.87;101680.20;106687;1268;22550;-62
2022/01/25 08:28:16;;;;;;;20.20;7.00;;;;;;;2.63;92.01;101681.77;106700;1268;25315;-62
2022/01/25 08:30:48;;;;;;;19.10;5.80;;;;;;;2.65;92.06;101685.87;106733;1268;22558;-62
2022/01/25 08:33:19;;;;;;;22.40;8.20;;;;;;;2.63;91.95;101685.47;106861;1268;24434;-61
2022/01/25 08:35:51;;;;;;;23.60;7.20;;;;;;;2.63;92.04;101681.77;106758;1268;25400;-59
2022/01/25 08:38:22;;;;;;;18.80;7.30;;;;;;;2.65;92.21;101680.90;106782;1268;22554;-59
2022/01/25 08:40:53;;;;;;;20.70;6.70;;;;;;;2.67;92.12;101686.89;106805;1268;22527;-62
2022/01/25 08:43:25;;;;;;;16.90;6.20;;;;;;;2.68;92.01;101689.50;106614;1271;25347;-62
2022/01/25 08:45:56;;;;;;;19.40;5.90;;;;;;;2.69;91.98;101688.31;106530;1270;22540;-61
2022/01/25 08:48:28;;;;;;;17.00;5.60;;;;;;;2.68;91.96;101687.52;106689;1271;22562;-61
2022/01/25 08:50:59;;;;;;;16.30;5.40;;;;;;;2.66;91.88;101688.86;106703;1268;22594;-61
2022/01/25 08:53:30;;;;;;;15.80;4.80;;;;;;;2.64;91.96;101692.00;106671;1270;22534;-60
2022/01/25 08:56:01;;;;;;;15.80;4.50;;;;;;;2.64;92.04;101692.01;106620;1268;22604;-61
2022/01/25 08:58:32;;;;;;;18.60;5.10;;;;;;;2.62;91.93;101696.02;106612;1268;22630;-61
2022/01/25 09:01:04;;;;;;;15.50;4.00;;;;;;;2.63;92.13;101697.05;106660;1268;22544;-61
2022/01/25 09:03:38;;;;;;;14.60;4.30;;;;;;;2.63;92.10;101693.27;106674;1268;22597;-62
2022/01/25 09:06:09;;;;;;;14.90;3.80;;;;;;;2.64;92.03;101694.05;106657;1268;22480;-62
2022/01/25 09:08:41;;;;;;;13.40;3.30;;;;;;;2.63;92.02;101701.14;106722;1268;22544;-59
2022/01/25 09:11:12;;;;;;;14.50;4.80;;;;;;;2.61;92.04;101706.03;106625;1269;25260;-61
2022/01/25 09:13:43;;;;;;;15.30;3.90;;;;;;;2.63;92.24;101704.30;106744;1268;23249;-61
2022/01/25 09:16:14;;;;;;;12.60;3.40;;;;;;;2.65;92.38;101705.33;106716;1268;22535;-60
2022/01/25 09:18:45;;;;;;;14.10;2.90;;;;;;;2.66;92.08;101703.36;106772;1268;25276;-59
2022/01/25 09:21:17;;;;;;;14.60;4.10;;;;;;;2.64;91.96;101703.44;106647;1270;22622;-59
2022/01/25 09:23:49;;;;;;;14.30;3.10;;;;;;;2.63;92.06;101701.30;106664;1270;22558;-61
2022/01/25 09:26:21;;;;;;;13.20;3.60;;;;;;;2.61;91.77;101697.52;106749;1268;24208;-61
2022/01/25 09:28:54;;;;;;;13.80;4.40;;;;;;;2.57;91.75;101699.63;106653;1268;22560;-61
2022/01/25 09:31:26;;;;;;;12.10;3.30;;;;;;;2.55;91.74;101704.11;106599;1270;24244;-62
2022/01/25 09:33:58;;;;;;;13.30;3.60;;;;;;;2.53;91.59;101703.86;106740;1268;29127;-59
2022/01/25 09:36:29;;;;;;;13.00;3.60;;;;;;;2.50;91.74;101703.70;106732;1270;27310;-60
2022/01/25 09:39:01;;;;;;;11.90;3.20;;;;;;;2.50;91.80;101699.21;106568;1268;25247;-63
2022/01/25 09:41:32;;;;;;;16.10;4.50;;;;;;;2.50;91.97;101695.27;106872;1268;24376;-62
2022/01/25 09:44:04;;;;;;;15.40;3.60;;;;;;;2.51;92.15;101698.82;106789;1267;25528;-62
2022/01/25 09:46:35;;;;;;;15.30;3.30;;;;;;;2.52;92.15;101697.40;106859;1267;22651;-62
2022/01/25 09:49:07;;;;;;;17.40;4.40;;;;;;;2.54;92.20;101699.45;106813;1267;22655;-63
2022/01/25 09:51:42;;;;;;;19.50;4.60;;;;;;;2.56;92.01;101696.94;106961;1268;22649;-62
2022/01/25 09:54:13;;;;;;;19.20;5.20;;;;;;;2.58;91.79;101691.43;106806;1267;25281;-62
2022/01/25 09:56:44;;;;;;;20.60;5.30;;;;;;;2.59;91.75;101680.10;107291;1268;25269;-62
2022/01/25 09:59:16;;;;;;;19.90;5.50;;;;;;;2.62;91.95;101670.73;106923;1267;25254;-62
2022/01/25 10:01:49;;;;;;;18.50;4.80;;;;;;;2.66;92.02;101657.90;106456;1267;22715;-61
2022/01/25 10:04:34;;;;;;;18.00;4.90;;;;;;;2.69;92.05;101656.88;106221;1268;24208;-61
2022/01/25 10:07:09;;;;;;;14.70;3.10;;;;;;;2.74;91.94;101661.06;106165;1267;22544;-60
2022/01/25 10:09:43;;;;;;;23.00;5.50;;;;;;;2.76;91.45;101662.09;106290;1268;22541;-61
2022/01/25 10:12:21;;;;;;;17.00;4.90;;;;;;;2.78;91.73;101659.34;106250;1267;22535;-60
2022/01/25 10:15:10;;;;;;;20.10;5.00;;;;;;;2.80;91.24;101661.07;106150;1268;22669;-62
2022/01/25 10:17:43;;;;;;;17.10;4.30;;;;;;;2.83;91.51;101661.86;106155;1267;26679;-61
2022/01/25 10:20:31;;;;;;;18.80;5.10;;;;;;;2.87;91.83;101660.77;106202;1267;22542;-61
2022/01/25 10:23:06;;;;;;;17.20;4.50;;;;;;;2.90;91.37;101658.80;106092;1267;22553;-61
2022/01/25 10:25:39;;;;;;;19.10;3.80;;;;;;;2.93;91.57;101650.21;106512;1267;22616;-61
2022/01/25 10:28:12;;;;;;;14.40;3.80;;;;;;;2.97;91.26;101649.59;106104;1268;22541;-61
2022/01/25 10:30:50;;;;;;;17.70;5.20;;;;;;;3.00;90.93;101642.34;106181;1268;22566;-61
2022/01/25 10:33:29;;;;;;;19.90;5.30;;;;;;;3.03;90.95;101636.59;106276;1266;22558;-60
2022/01/25 10:36:09;;;;;;;16.60;4.80;;;;;;;3.08;91.33;101630.04;106203;1267;25083;-61
2022/01/25 10:38:41;;;;;;;19.40;4.10;;;;;;;3.14;90.96;101622.70;106032;1268;27262;-57
2022/01/25 10:41:14;;;;;;;16.80;4.50;;;;;;;3.18;90.97;101618.45;106198;1268;22551;-60
2022/01/25 10:43:49;;;;;;;15.60;4.10;;;;;;;3.22;90.78;101610.80;106241;1267;24326;-61
2022/01/25 10:46:25;;;;;;;15.00;3.90;;;;;;;3.27;90.91;101610.86;106397;1267;24285;-62
2022/01/25 10:49:03;;;;;;;16.40;4.90;;;;;;;3.32;90.53;101603.45;106265;1268;24306;-62
2022/01/25 10:51:39;;;;;;;19.70;5.80;;;;;;;3.36;90.67;101602.58;105996;1267;25322;-62
2022/01/25 10:54:13;;;;;;;16.10;4.20;;;;;;;3.42;90.65;101606.66;106240;1267;24286;-61
2022/01/25 10:56:48;;;;;;;18.40;4.20;;;;;;;3.46;90.45;101605.88;106080;1267;22705;-61
2022/01/25 10:59:23;;;;;;;18.00;3.80;;;;;;;3.48;90.15;101600.19;106144;1267;25365;-61
2022/01/25 11:01:55;;;;;;;15.90;3.80;;;;;;;3.51;90.20;101604.36;106174;1268;25437;-60
2022/01/25 11:04:31;;;;;;;15.30;4.90;;;;;;;3.53;90.25;101602.08;106189;1267;22690;-63
2022/01/25 11:07:05;;;;;;;17.50;5.10;;;;;;;3.56;90.59;101598.90;106339;1267;24313;-60
2022/01/25 11:09:41;;;;;;;18.50;5.00;;;;;;;3.59;90.30;101594.86;106059;1267;22574;-60
2022/01/25 11:12:17;;;;;;;13.90;3.40;;;;;;;3.60;90.13;101596.38;106797;1267;22531;-61
2022/01/25 11:14:53;;;;;;;14.70;3.00;;;;;;;3.58;89.06;101601.11;107013;1268;22564;-62
2022/01/25 11:17:26;;;;;;;13.70;3.10;;;;;;;3.54;88.47;101598.59;106813;1268;25956;-62
2022/01/25 11:19:59;;;;;;;16.90;3.50;;;;;;;3.49;88.27;101596.64;106847;1268;22547;-62
2022/01/25 11:22:32;;;;;;;12.60;2.70;;;;;;;3.48;89.04;101586.22;106949;1267;24233;-62
2022/01/25 11:25:07;;;;;;;12.90;3.40;;;;;;;3.49;88.91;101591.11;106953;1268;22543;-60
2022/01/25 11:27:40;;;;;;;12.60;2.90;;;;;;;3.47;88.12;101598.21;106915;1267;24665;-62
2022/01/25 11:30:14;;;;;;;11.70;2.70;;;;;;;3.45;88.43;101597.12;106806;1267;22546;-63
2022/01/25 11:32:50;;;;;;;15.40;3.60;;;;;;;3.44;88.70;101593.48;107256;1267;22644;-63
2022/01/25 11:35:26;;;;;;;11.90;3.10;;;;;;;3.46;89.09;101589.77;106844;1266;24254;-62
2022/01/25 11:38:00;;;;;;;13.70;3.40;;;;;;;3.48;88.47;101587.40;106814;1268;25383;-62
2022/01/25 11:40:34;;;;;;;16.30;4.60;;;;;;;3.49;88.85;101580.62;106914;1268;25390;-63
2022/01/25 11:43:09;;;;;;;15.70;3.90;;;;;;;3.52;88.99;101575.64;106784;1267;26037;-62
2022/01/25 11:45:44;;;;;;;13.80;3.40;;;;;;;3.56;88.91;101582.17;106707;1267;23076;-61
2022/01/25 11:48:19;;;;;;;13.80;3.00;;;;;;;3.59;88.97;101583.73;106857;1267;24207;-62
2022/01/25 11:50:50;;;;;;;15.50;4.00;;;;;;;3.62;88.80;101582.55;106775;1267;25646;-62
2022/01/25 11:53:26;;;;;;;19.50;5.30;;;;;;;3.68;89.12;101582.70;106893;1267;22641;-60
2022/01/25 11:55:57;;;;;;;18.10;5.70;;;;;;;3.74;89.31;101577.46;106752;1268;22672;-63
2022/01/25 11:58:34;;;;;;;15.20;3.60;;;;;;;3.81;89.10;101579.98;106774;1267;26513;-61
2022/01/25 12:01:09;;;;;;;19.10;4.90;;;;;;;3.86;88.72;101577.34;106528;1267;22836;-62
2022/01/25 12:03:44;;;;;;;15.70;3.90;;;;;;;3.90;88.52;101572.90;106797;1267;25386;-61
2022/01/25 12:06:20;;;;;;;16.90;4.40;;;;;;;3.92;88.17;101569.97;106756;1268;22460;-61
2022/01/25 12:11:59;;;;;;;14.90;4.70;;;;;;;3.97;88.04;101569.16;106640;1267;22629;-62
2022/01/25 12:14:37;;;;;;;18.80;5.00;;;;;;;4.00;88.00;101565.12;106808;1268;22566;-62
2022/01/25 12:17:19;;;;;;;14.80;3.60;;;;;;;4.03;88.02;101557.92;106900;1267;24256;-60
2022/01/25 12:19:54;;;;;;;17.00;3.70;;;;;;;4.04;87.90;101556.89;106785;1267;22536;-62
2022/01/25 12:22:38;;;;;;;14.80;3.30;;;;;;;4.08;87.74;101556.63;106767;1268;22531;-62
2022/01/25 12:25:26;;;;;;;15.50;3.50;;;;;;;4.13;87.82;101556.04;106701;1268;22701;-61
2022/01/25 12:28:01;;;;;;;14.70;3.90;;;;;;;4.15;87.32;101556.27;106557;1268;22540;-62
2022/01/25 12:30:39;;;;;;;14.60;3.70;;;;;;;4.15;87.29;101552.73;106341;1267;24698;-62
2022/01/25 12:33:19;;;;;;;12.60;2.50;;;;;;;4.16;87.27;101549.02;106132;1268;22668;-62
2022/01/25 12:35:52;;;;;;;14.20;2.90;;;;;;;4.15;87.06;101545.77;106007;1267;24278;-62
2022/01/25 12:38:27;;;;;;;14.70;4.00;;;;;;;4.14;87.09;101543.01;106061;1268;22734;-62
2022/01/25 12:41:06;;;;;;;16.00;3.20;;;;;;;4.14;87.19;101542.79;106026;1268;22539;-61
2022/01/25 12:43:39;;;;;;;14.90;3.50;;;;;;;4.13;87.39;101545.23;106064;1267;24334;-61
2022/01/25 12:46:14;;;;;;;14.00;3.20;;;;;;;4.13;87.35;101539.55;106186;1267;24287;-62
2022/01/25 12:48:47;;;;;;;17.10;4.00;;;;;;;4.14;87.29;101537.41;106299;1268;22538;-61
2022/01/25 12:51:20;;;;;;;14.40;4.20;;;;;;;4.14;87.37;101529.35;106206;1266;22707;-61
2022/01/25 12:53:54;;;;;;;12.90;2.90;;;;;;;4.14;87.11;101527.77;106200;1267;22553;-63
2022/01/25 12:56:29;;;;;;;13.40;3.70;;;;;;;4.12;86.60;101530.31;106317;1268;25319;-61